sensor_id;sensor_type;location;lat;lon;timestamp;temperature;humidity
57242;DHT22;43095;53.302;5.786;2022-08-25T00:01:19;21.10;99.90
57242;DHT22;43095;53.302;5.786;2022-08-25T00:04:09;21.10;99.90
57242;DHT22;43095;53.302;5.786;2022-08-25T00:06:55;21.00;99.90
57242;DHT22;43095;53.302;5.786;2022-08-25T00:09:47;21.00;99.90
57242;DHT22;43095;53.302;5.786;2022-08-25T00:12:32;21.00;99.90
57242;DHT22;43095;53.302;5.786;2022-08-25T00:15:18;20.90;99.90
57242;DHT22;43095;53.302;5.786;2022-08-25T00:18:07;20.90;99.90
57242;DHT22;43095;53.302;5.786;2022-08-25T00:21:04;20.90;99.90
57242;DHT22;43095;53.302;5.786;2022-08-25T00:23:50;20.90;99.90
57242;DHT22;43095;53.302;5.786;2022-08-25T00:26:42;20.90;99.90
57242;DHT22;43095;53.302;5.786;2022-08-25T00:29:29;20.80;99.90
57242;DHT22;43095;53.302;5.786;2022-08-25T00:32:15;20.80;99.90
57242;DHT22;43095;53.302;5.786;2022-08-25T00:35:03;20.70;99.90
57242;DHT22;43095;53.302;5.786;2022-08-25T00:37:49;20.70;99.90
57242;DHT22;43095;53.302;5.786;2022-08-25T00:40:35;20.60;99.90
57242;DHT22;43095;53.302;5.786;2022-08-25T00:43:22;20.60;99.90
57242;DHT22;43095;53.302;5.786;2022-08-25T00:46:11;20.60;99.90
57242;DHT22;43095;53.302;5.786;2022-08-25T00:58:04;20.40;99.90
57242;DHT22;43095;53.302;5.786;2022-08-25T01:00:54;20.40;99.90
57242;DHT22;43095;53.302;5.786;2022-08-25T01:03:41;20.30;99.90
57242;DHT22;43095;53.302;5.786;2022-08-25T01:06:28;20.30;99.90
57242;DHT22;43095;53.302;5.786;2022-08-25T01:09:18;20.20;99.90
57242;DHT22;43095;53.302;5.786;2022-08-25T01:12:04;20.20;99.90
57242;DHT22;43095;53.302;5.786;2022-08-25T01:14:52;20.20;99.90
57242;DHT22;43095;53.302;5.786;2022-08-25T01:17:47;20.10;99.90
57242;DHT22;43095;53.302;5.786;2022-08-25T01:20:33;20.10;99.90
57242;DHT22;43095;53.302;5.786;2022-08-25T01:23:20;20.10;99.90
57242;DHT22;43095;53.302;5.786;2022-08-25T01:26:14;20.10;99.90
57242;DHT22;43095;53.302;5.786;2022-08-25T01:29:04;20.10;99.90
57242;DHT22;43095;53.302;5.786;2022-08-25T01:32:10;20.10;99.90
57242;DHT22;43095;53.302;5.786;2022-08-25T01:34:57;20.10;99.90
57242;DHT22;43095;53.302;5.786;2022-08-25T01:37:43;20.00;99.90
57242;DHT22;43095;53.302;5.786;2022-08-25T01:40:30;20.00;99.90
57242;DHT22;43095;53.302;5.786;2022-08-25T01:43:35;20.00;99.90
57242;DHT22;43095;53.302;5.786;2022-08-25T01:46:21;19.90;99.90
57242;DHT22;43095;53.302;5.786;2022-08-25T01:49:07;19.90;99.90
57242;DHT22;43095;53.302;5.786;2022-08-25T01:52:28;19.80;99.90
57242;DHT22;43095;53.302;5.786;2022-08-25T01:55:16;19.80;99.90
57242;DHT22;43095;53.302;5.786;2022-08-25T01:58:02;19.70;99.90
57242;DHT22;43095;53.302;5.786;2022-08-25T02:00:51;19.60;99.90
57242;DHT22;43095;53.302;5.786;2022-08-25T02:03:41;19.60;99.90
57242;DHT22;43095;53.302;5.786;2022-08-25T02:06:30;19.50;99.90
57242;DHT22;43095;53.302;5.786;2022-08-25T02:09:19;19.40;99.90
57242;DHT22;43095;53.302;5.786;2022-08-25T02:12:06;19.40;99.90
57242;DHT22;43095;53.302;5.786;2022-08-25T02:14:53;19.40;99.90
57242;DHT22;43095;53.302;5.786;2022-08-25T02:17:39;19.40;99.90
57242;DHT22;43095;53.302;5.786;2022-08-25T02:20:25;19.40;99.90
57242;DHT22;43095;53.302;5.786;2022-08-25T02:23:11;19.30;99.90
57242;DHT22;43095;53.302;5.786;2022-08-25T02:25:57;19.30;99.90
57242;DHT22;43095;53.302;5.786;2022-08-25T02:28:43;19.30;99.90
57242;DHT22;43095;53.302;5.786;2022-08-25T02:31:30;19.30;99.90
57242;DHT22;43095;53.302;5.786;2022-08-25T02:34:17;19.20;99.90
57242;DHT22;43095;53.302;5.786;2022-08-25T02:37:02;19.20;99.90
57242;DHT22;43095;53.302;5.786;2022-08-25T02:39:48;19.20;99.90
57242;DHT22;43095;53.302;5.786;2022-08-25T02:42:34;19.10;99.90
57242;DHT22;43095;53.302;5.786;2022-08-25T02:45:20;19.10;99.90
57242;DHT22;43095;53.302;5.786;2022-08-25T02:48:06;19.00;99.90
57242;DHT22;43095;53.302;5.786;2022-08-25T02:50:52;19.00;99.90
57242;DHT22;43095;53.302;5.786;2022-08-25T02:53:40;18.90;99.90
57242;DHT22;43095;53.302;5.786;2022-08-25T02:56:27;18.90;99.90
57242;DHT22;43095;53.302;5.786;2022-08-25T02:59:13;18.90;99.90
57242;DHT22;43095;53.302;5.786;2022-08-25T03:02:02;18.80;99.90
57242;DHT22;43095;53.302;5.786;2022-08-25T03:04:47;18.70;99.90
57242;DHT22;43095;53.302;5.786;2022-08-25T03:07:34;18.70;99.90
57242;DHT22;43095;53.302;5.786;2022-08-25T03:10:19;18.70;99.90
57242;DHT22;43095;53.302;5.786;2022-08-25T03:13:05;18.70;99.90
57242;DHT22;43095;53.302;5.786;2022-08-25T03:15:51;18.70;99.90
57242;DHT22;43095;53.302;5.786;2022-08-25T03:18:39;18.70;99.90
57242;DHT22;43095;53.302;5.786;2022-08-25T03:21:26;18.70;99.90
57242;DHT22;43095;53.302;5.786;2022-08-25T03:24:12;18.70;99.90
57242;DHT22;43095;53.302;5.786;2022-08-25T03:26:58;18.60;99.90
57242;DHT22;43095;53.302;5.786;2022-08-25T03:29:44;18.60;99.90
57242;DHT22;43095;53.302;5.786;2022-08-25T03:32:29;18.60;99.90
57242;DHT22;43095;53.302;5.786;2022-08-25T03:35:15;18.50;99.90
57242;DHT22;43095;53.302;5.786;2022-08-25T03:38:01;18.50;99.90
57242;DHT22;43095;53.302;5.786;2022-08-25T03:40:48;18.50;99.90
57242;DHT22;43095;53.302;5.786;2022-08-25T03:43:34;18.50;99.90
57242;DHT22;43095;53.302;5.786;2022-08-25T03:46:26;18.40;99.90
57242;DHT22;43095;53.302;5.786;2022-08-25T03:49:15;18.30;99.90
57242;DHT22;43095;53.302;5.786;2022-08-25T03:52:01;18.30;99.90
57242;DHT22;43095;53.302;5.786;2022-08-25T03:54:46;18.30;99.90
57242;DHT22;43095;53.302;5.786;2022-08-25T03:57:33;18.30;99.90
57242;DHT22;43095;53.302;5.786;2022-08-25T04:00:19;18.20;99.90
57242;DHT22;43095;53.302;5.786;2022-08-25T04:03:05;18.20;99.90
57242;DHT22;43095;53.302;5.786;2022-08-25T04:05:51;18.20;99.90
57242;DHT22;43095;53.302;5.786;2022-08-25T04:08:37;18.10;99.90
57242;DHT22;43095;53.302;5.786;2022-08-25T04:11:23;18.10;99.90
57242;DHT22;43095;53.302;5.786;2022-08-25T04:14:09;18.00;99.90
57242;DHT22;43095;53.302;5.786;2022-08-25T04:17:00;18.00;99.90
57242;DHT22;43095;53.302;5.786;2022-08-25T04:19:46;18.00;99.90
57242;DHT22;43095;53.302;5.786;2022-08-25T04:22:32;18.00;99.90
57242;DHT22;43095;53.302;5.786;2022-08-25T04:25:21;17.90;99.90
57242;DHT22;43095;53.302;5.786;2022-08-25T04:28:08;17.90;99.90
57242;DHT22;43095;53.302;5.786;2022-08-25T04:30:54;17.90;99.90
57242;DHT22;43095;53.302;5.786;2022-08-25T04:33:40;17.80;99.90
57242;DHT22;43095;53.302;5.786;2022-08-25T04:36:26;17.80;99.90
57242;DHT22;43095;53.302;5.786;2022-08-25T04:39:12;17.80;99.90
57242;DHT22;43095;53.302;5.786;2022-08-25T04:41:58;17.70;99.90
57242;DHT22;43095;53.302;5.786;2022-08-25T04:44:45;17.70;99.90
57242;DHT22;43095;53.302;5.786;2022-08-25T04:47:36;17.70;99.90
57242;DHT22;43095;53.302;5.786;2022-08-25T04:50:21;17.70;99.90
57242;DHT22;43095;53.302;5.786;2022-08-25T04:53:07;17.70;99.90
57242;DHT22;43095;53.302;5.786;2022-08-25T04:55:53;17.70;99.90
57242;DHT22;43095;53.302;5.786;2022-08-25T04:58:39;17.70;99.90
57242;DHT22;43095;53.302;5.786;2022-08-25T05:01:25;17.70;99.90
57242;DHT22;43095;53.302;5.786;2022-08-25T05:04:16;17.70;99.90
57242;DHT22;43095;53.302;5.786;2022-08-25T05:07:13;17.70;99.90
57242;DHT22;43095;53.302;5.786;2022-08-25T05:09:59;17.70;99.90
57242;DHT22;43095;53.302;5.786;2022-08-25T05:12:45;17.70;99.90
57242;DHT22;43095;53.302;5.786;2022-08-25T05:15:31;17.70;99.90
57242;DHT22;43095;53.302;5.786;2022-08-25T05:18:35;17.70;99.90
57242;DHT22;43095;53.302;5.786;2022-08-25T05:21:24;17.70;99.90
57242;DHT22;43095;53.302;5.786;2022-08-25T05:24:10;17.70;99.90
57242;DHT22;43095;53.302;5.786;2022-08-25T05:26:56;17.70;99.90
57242;DHT22;43095;53.302;5.786;2022-08-25T05:29:42;17.80;99.90
57242;DHT22;43095;53.302;5.786;2022-08-25T05:32:28;17.90;99.90
57242;DHT22;43095;53.302;5.786;2022-08-25T05:35:14;17.90;99.90
57242;DHT22;43095;53.302;5.786;2022-08-25T05:38:01;17.90;99.90
57242;DHT22;43095;53.302;5.786;2022-08-25T05:41:13;18.00;99.90
57242;DHT22;43095;53.302;5.786;2022-08-25T05:44:00;18.10;99.90
57242;DHT22;43095;53.302;5.786;2022-08-25T05:46:46;18.10;99.90
57242;DHT22;43095;53.302;5.786;2022-08-25T05:49:32;18.20;99.90
57242;DHT22;43095;53.302;5.786;2022-08-25T05:52:17;18.20;99.90
57242;DHT22;43095;53.302;5.786;2022-08-25T05:55:05;18.30;99.90
57242;DHT22;43095;53.302;5.786;2022-08-25T05:57:51;18.40;99.90
57242;DHT22;43095;53.302;5.786;2022-08-25T06:00:38;18.50;99.90
57242;DHT22;43095;53.302;5.786;2022-08-25T06:03:23;18.50;99.90
57242;DHT22;43095;53.302;5.786;2022-08-25T06:06:09;18.60;99.90
57242;DHT22;43095;53.302;5.786;2022-08-25T06:08:55;18.70;99.90
57242;DHT22;43095;53.302;5.786;2022-08-25T06:11:41;18.80;99.90
57242;DHT22;43095;53.302;5.786;2022-08-25T06:14:27;18.90;99.90
57242;DHT22;43095;53.302;5.786;2022-08-25T06:17:13;18.90;99.90
57242;DHT22;43095;53.302;5.786;2022-08-25T06:19:58;19.00;99.90
57242;DHT22;43095;53.302;5.786;2022-08-25T06:22:45;19.10;99.90
57242;DHT22;43095;53.302;5.786;2022-08-25T06:25:31;19.20;99.90
57242;DHT22;43095;53.302;5.786;2022-08-25T06:28:18;19.30;99.90
57242;DHT22;43095;53.302;5.786;2022-08-25T06:31:04;19.30;99.90
57242;DHT22;43095;53.302;5.786;2022-08-25T06:33:50;19.40;99.90
57242;DHT22;43095;53.302;5.786;2022-08-25T06:36:37;19.50;99.90
57242;DHT22;43095;53.302;5.786;2022-08-25T06:39:23;19.60;99.90
57242;DHT22;43095;53.302;5.786;2022-08-25T06:42:09;19.70;99.90
57242;DHT22;43095;53.302;5.786;2022-08-25T06:44:54;19.80;99.90
57242;DHT22;43095;53.302;5.786;2022-08-25T06:47:40;19.90;99.90
57242;DHT22;43095;53.302;5.786;2022-08-25T06:50:26;20.00;99.90
57242;DHT22;43095;53.302;5.786;2022-08-25T06:53:12;20.10;99.90
57242;DHT22;43095;53.302;5.786;2022-08-25T06:55:58;20.30;99.90
57242;DHT22;43095;53.302;5.786;2022-08-25T06:58:50;20.50;99.90
57242;DHT22;43095;53.302;5.786;2022-08-25T07:01:36;20.60;99.90
57242;DHT22;43095;53.302;5.786;2022-08-25T07:04:22;20.80;99.90
57242;DHT22;43095;53.302;5.786;2022-08-25T07:07:10;21.00;99.90
57242;DHT22;43095;53.302;5.786;2022-08-25T07:09:56;21.30;99.90
57242;DHT22;43095;53.302;5.786;2022-08-25T07:12:42;21.30;99.90
57242;DHT22;43095;53.302;5.786;2022-08-25T07:15:27;21.50;99.90
57242;DHT22;43095;53.302;5.786;2022-08-25T07:18:13;21.70;99.90
57242;DHT22;43095;53.302;5.786;2022-08-25T07:20:59;21.80;99.90
57242;DHT22;43095;53.302;5.786;2022-08-25T07:23:44;21.90;99.90
57242;DHT22;43095;53.302;5.786;2022-08-25T07:26:32;22.00;99.90
57242;DHT22;43095;53.302;5.786;2022-08-25T07:29:30;22.20;99.90
57242;DHT22;43095;53.302;5.786;2022-08-25T07:32:18;22.30;99.90
57242;DHT22;43095;53.302;5.786;2022-08-25T07:35:05;22.40;99.90
57242;DHT22;43095;53.302;5.786;2022-08-25T07:38:05;22.50;99.90
57242;DHT22;43095;53.302;5.786;2022-08-25T07:41:01;22.60;99.90
57242;DHT22;43095;53.302;5.786;2022-08-25T07:43:46;22.70;99.90
57242;DHT22;43095;53.302;5.786;2022-08-25T07:46:34;22.80;99.90
57242;DHT22;43095;53.302;5.786;2022-08-25T07:49:22;22.90;99.90
57242;DHT22;43095;53.302;5.786;2022-08-25T07:52:08;23.10;99.90
57242;DHT22;43095;53.302;5.786;2022-08-25T07:54:54;23.10;99.90
57242;DHT22;43095;53.302;5.786;2022-08-25T07:57:40;23.20;99.90
57242;DHT22;43095;53.302;5.786;2022-08-25T08:00:27;23.30;99.90
57242;DHT22;43095;53.302;5.786;2022-08-25T08:03:14;23.50;99.90
57242;DHT22;43095;53.302;5.786;2022-08-25T08:06:22;23.60;99.90
57242;DHT22;43095;53.302;5.786;2022-08-25T08:09:08;23.70;99.90
57242;DHT22;43095;53.302;5.786;2022-08-25T08:11:54;23.80;99.90
57242;DHT22;43095;53.302;5.786;2022-08-25T08:14:40;23.90;99.90
57242;DHT22;43095;53.302;5.786;2022-08-25T08:17:30;24.10;99.90
57242;DHT22;43095;53.302;5.786;2022-08-25T08:20:16;24.20;99.90
57242;DHT22;43095;53.302;5.786;2022-08-25T08:23:07;24.30;99.60
57242;DHT22;43095;53.302;5.786;2022-08-25T08:25:53;24.40;99.20
57242;DHT22;43095;53.302;5.786;2022-08-25T08:28:42;24.40;98.20
57242;DHT22;43095;53.302;5.786;2022-08-25T08:31:28;24.50;98.20
57242;DHT22;43095;53.302;5.786;2022-08-25T08:34:14;24.70;99.30
57242;DHT22;43095;53.302;5.786;2022-08-25T08:37:00;24.70;96.80
57242;DHT22;43095;53.302;5.786;2022-08-25T08:39:46;24.90;96.00
57242;DHT22;43095;53.302;5.786;2022-08-25T08:42:58;25.00;94.50
57242;DHT22;43095;53.302;5.786;2022-08-25T08:45:51;25.10;92.10
57242;DHT22;43095;53.302;5.786;2022-08-25T08:51:48;25.40;93.30
57242;DHT22;43095;53.302;5.786;2022-08-25T08:54:38;25.40;93.10
57242;DHT22;43095;53.302;5.786;2022-08-25T08:57:28;25.50;91.70
57242;DHT22;43095;53.302;5.786;2022-08-25T09:00:14;25.70;91.50
57242;DHT22;43095;53.302;5.786;2022-08-25T09:03:09;25.80;90.20
57242;DHT22;43095;53.302;5.786;2022-08-25T09:06:01;25.90;86.10
57242;DHT22;43095;53.302;5.786;2022-08-25T09:08:52;26.00;80.20
57242;DHT22;43095;53.302;5.786;2022-08-25T09:11:51;26.10;80.10
57242;DHT22;43095;53.302;5.786;2022-08-25T09:18:12;26.40;72.80
57242;DHT22;43095;53.302;5.786;2022-08-25T09:28:19;26.80;76.50
57242;DHT22;43095;53.302;5.786;2022-08-25T09:34:32;27.10;68.40
57242;DHT22;43095;53.302;5.786;2022-08-25T09:37:19;27.20;67.20
57242;DHT22;43095;53.302;5.786;2022-08-25T09:40:05;27.40;68.30
57242;DHT22;43095;53.302;5.786;2022-08-25T09:42:55;27.50;63.10
57242;DHT22;43095;53.302;5.786;2022-08-25T09:45:46;27.60;61.80
57242;DHT22;43095;53.302;5.786;2022-08-25T09:48:42;27.70;61.60
57242;DHT22;43095;53.302;5.786;2022-08-25T09:51:34;27.80;58.50
57242;DHT22;43095;53.302;5.786;2022-08-25T09:54:27;27.90;57.40
57242;DHT22;43095;53.302;5.786;2022-08-25T09:57:35;28.10;58.00
57242;DHT22;43095;53.302;5.786;2022-08-25T10:00:28;28.10;55.00
57242;DHT22;43095;53.302;5.786;2022-08-25T10:03:21;28.30;55.10
57242;DHT22;43095;53.302;5.786;2022-08-25T10:06:14;28.40;53.90
57242;DHT22;43095;53.302;5.786;2022-08-25T10:09:03;28.50;54.10
57242;DHT22;43095;53.302;5.786;2022-08-25T10:11:50;28.70;54.40
57242;DHT22;43095;53.302;5.786;2022-08-25T10:14:42;28.70;51.90
57242;DHT22;43095;53.302;5.786;2022-08-25T10:17:32;28.70;51.60
57242;DHT22;43095;53.302;5.786;2022-08-25T10:20:21;28.90;51.70
57242;DHT22;43095;53.302;5.786;2022-08-25T10:23:12;29.00;50.10
57242;DHT22;43095;53.302;5.786;2022-08-25T10:26:02;29.10;49.90
57242;DHT22;43095;53.302;5.786;2022-08-25T10:29:05;29.30;48.70
57242;DHT22;43095;53.302;5.786;2022-08-25T10:32:04;29.40;48.90
57242;DHT22;43095;53.302;5.786;2022-08-25T10:34:58;29.50;48.40
57242;DHT22;43095;53.302;5.786;2022-08-25T10:40:46;29.90;47.60
57242;DHT22;43095;53.302;5.786;2022-08-25T10:44:01;30.20;46.90
57242;DHT22;43095;53.302;5.786;2022-08-25T10:47:10;30.40;46.50
57242;DHT22;43095;53.302;5.786;2022-08-25T10:53:40;30.90;44.50
57242;DHT22;43095;53.302;5.786;2022-08-25T10:56:36;30.80;44.00
57242;DHT22;43095;53.302;5.786;2022-08-25T11:03:08;31.00;44.30
57242;DHT22;43095;53.302;5.786;2022-08-25T11:06:03;31.30;44.80
57242;DHT22;43095;53.302;5.786;2022-08-25T11:08:56;31.50;43.90
57242;DHT22;43095;53.302;5.786;2022-08-25T11:11:51;31.70;43.10
57242;DHT22;43095;53.302;5.786;2022-08-25T11:14:53;31.80;43.90
57242;DHT22;43095;53.302;5.786;2022-08-25T11:17:55;32.10;43.80
57242;DHT22;43095;53.302;5.786;2022-08-25T11:21:06;32.10;41.90
57242;DHT22;43095;53.302;5.786;2022-08-25T11:24:21;32.50;43.30
57242;DHT22;43095;53.302;5.786;2022-08-25T11:27:21;32.70;43.10
57242;DHT22;43095;53.302;5.786;2022-08-25T11:30:12;32.90;42.60
57242;DHT22;43095;53.302;5.786;2022-08-25T11:32:58;32.80;42.60
57242;DHT22;43095;53.302;5.786;2022-08-25T11:35:52;32.80;42.70
57242;DHT22;43095;53.302;5.786;2022-08-25T11:39:07;33.10;42.50
57242;DHT22;43095;53.302;5.786;2022-08-25T11:57:09;33.70;40.10
57242;DHT22;43095;53.302;5.786;2022-08-25T12:02:56;33.90;40.40
57242;DHT22;43095;53.302;5.786;2022-08-25T12:05:49;34.30;40.10
57242;DHT22;43095;53.302;5.786;2022-08-25T12:11:55;34.40;39.40
57242;DHT22;43095;53.302;5.786;2022-08-25T12:14:44;34.70;40.00
57242;DHT22;43095;53.302;5.786;2022-08-25T12:17:37;34.80;39.40
57242;DHT22;43095;53.302;5.786;2022-08-25T12:26:52;35.60;38.20
57242;DHT22;43095;53.302;5.786;2022-08-25T12:29:39;35.50;36.90
57242;DHT22;43095;53.302;5.786;2022-08-25T12:35:50;35.80;37.20
57242;DHT22;43095;53.302;5.786;2022-08-25T12:38:42;35.90;37.50
57242;DHT22;43095;53.302;5.786;2022-08-25T12:42:37;35.70;36.20
57242;DHT22;43095;53.302;5.786;2022-08-25T12:51:21;36.40;36.60
57242;DHT22;43095;53.302;5.786;2022-08-25T13:00:04;35.90;35.20
57242;DHT22;43095;53.302;5.786;2022-08-25T13:03:24;36.00;35.90
57242;DHT22;43095;53.302;5.786;2022-08-25T13:15:41;35.80;34.90
57242;DHT22;43095;53.302;5.786;2022-08-25T13:18:37;36.20;34.80
57242;DHT22;43095;53.302;5.786;2022-08-25T13:21:35;36.30;34.10
57242;DHT22;43095;53.302;5.786;2022-08-25T13:24:34;36.50;34.70
57242;DHT22;43095;53.302;5.786;2022-08-25T13:27:26;36.50;34.90
57242;DHT22;43095;53.302;5.786;2022-08-25T13:30:22;36.40;34.10
57242;DHT22;43095;53.302;5.786;2022-08-25T13:33:20;36.40;33.70
57242;DHT22;43095;53.302;5.786;2022-08-25T13:36:06;36.80;34.40
57242;DHT22;43095;53.302;5.786;2022-08-25T13:39:25;36.70;34.50
57242;DHT22;43095;53.302;5.786;2022-08-25T13:42:31;37.10;33.90
57242;DHT22;43095;53.302;5.786;2022-08-25T13:45:24;37.00;34.00
57242;DHT22;43095;53.302;5.786;2022-08-25T13:48:12;37.00;33.60
57242;DHT22;43095;53.302;5.786;2022-08-25T13:51:23;36.90;33.90
57242;DHT22;43095;53.302;5.786;2022-08-25T13:54:34;37.10;34.40
57242;DHT22;43095;53.302;5.786;2022-08-25T13:57:28;36.80;34.00
57242;DHT22;43095;53.302;5.786;2022-08-25T14:00:27;37.50;34.20
57242;DHT22;43095;53.302;5.786;2022-08-25T14:03:52;37.50;33.50
57242;DHT22;43095;53.302;5.786;2022-08-25T14:06:37;37.40;33.70
57242;DHT22;43095;53.302;5.786;2022-08-25T14:09:23;37.30;33.30
57242;DHT22;43095;53.302;5.786;2022-08-25T14:12:46;37.80;33.30
57242;DHT22;43095;53.302;5.786;2022-08-25T14:15:34;38.10;32.80
57242;DHT22;43095;53.302;5.786;2022-08-25T14:18:28;38.30;32.90
57242;DHT22;43095;53.302;5.786;2022-08-25T14:21:19;38.00;32.70
57242;DHT22;43095;53.302;5.786;2022-08-25T14:24:07;38.50;33.00
57242;DHT22;43095;53.302;5.786;2022-08-25T14:26:55;38.30;32.60
57242;DHT22;43095;53.302;5.786;2022-08-25T14:29:41;38.40;31.80
57242;DHT22;43095;53.302;5.786;2022-08-25T14:32:27;38.70;32.10
57242;DHT22;43095;53.302;5.786;2022-08-25T14:35:12;38.70;31.90
57242;DHT22;43095;53.302;5.786;2022-08-25T14:38:07;38.50;32.00
57242;DHT22;43095;53.302;5.786;2022-08-25T14:40:53;38.80;31.70
57242;DHT22;43095;53.302;5.786;2022-08-25T14:43:43;38.70;31.60
57242;DHT22;43095;53.302;5.786;2022-08-25T14:46:32;38.80;32.00
57242;DHT22;43095;53.302;5.786;2022-08-25T14:49:22;39.00;31.80
57242;DHT22;43095;53.302;5.786;2022-08-25T14:52:17;38.90;31.80
57242;DHT22;43095;53.302;5.786;2022-08-25T14:55:08;38.90;31.20
57242;DHT22;43095;53.302;5.786;2022-08-25T14:57:54;39.00;31.50
57242;DHT22;43095;53.302;5.786;2022-08-25T15:00:42;38.60;31.80
57242;DHT22;43095;53.302;5.786;2022-08-25T15:03:36;38.50;31.40
57242;DHT22;43095;53.302;5.786;2022-08-25T15:06:22;38.50;31.50
57242;DHT22;43095;53.302;5.786;2022-08-25T15:09:10;38.60;31.80
57242;DHT22;43095;53.302;5.786;2022-08-25T15:11:57;38.70;31.50
57242;DHT22;43095;53.302;5.786;2022-08-25T15:14:42;38.70;31.70
57242;DHT22;43095;53.302;5.786;2022-08-25T15:17:29;38.70;31.00
57242;DHT22;43095;53.302;5.786;2022-08-25T15:20:15;38.30;31.30
57242;DHT22;43095;53.302;5.786;2022-08-25T15:23:01;38.60;31.50
57242;DHT22;43095;53.302;5.786;2022-08-25T15:25:49;38.80;30.90
57242;DHT22;43095;53.302;5.786;2022-08-25T15:28:40;38.70;31.30
57242;DHT22;43095;53.302;5.786;2022-08-25T15:31:29;39.00;31.30
57242;DHT22;43095;53.302;5.786;2022-08-25T15:34:15;38.80;30.90
57242;DHT22;43095;53.302;5.786;2022-08-25T15:37:13;38.70;31.60
57242;DHT22;43095;53.302;5.786;2022-08-25T15:39:59;38.50;30.80
57242;DHT22;43095;53.302;5.786;2022-08-25T15:42:45;38.50;31.80
57242;DHT22;43095;53.302;5.786;2022-08-25T15:45:31;38.40;32.20
57242;DHT22;43095;53.302;5.786;2022-08-25T15:48:17;38.40;31.80
57242;DHT22;43095;53.302;5.786;2022-08-25T15:51:03;38.60;31.90
57242;DHT22;43095;53.302;5.786;2022-08-25T15:53:49;38.50;32.30
57242;DHT22;43095;53.302;5.786;2022-08-25T15:56:35;38.60;32.50
57242;DHT22;43095;53.302;5.786;2022-08-25T15:59:22;38.60;31.80
57242;DHT22;43095;53.302;5.786;2022-08-25T16:02:09;38.50;31.30
57242;DHT22;43095;53.302;5.786;2022-08-25T16:05:00;38.50;31.20
57242;DHT22;43095;53.302;5.786;2022-08-25T16:07:47;38.20;31.60
57242;DHT22;43095;53.302;5.786;2022-08-25T16:10:38;38.40;32.00
57242;DHT22;43095;53.302;5.786;2022-08-25T16:13:24;38.60;31.30
57242;DHT22;43095;53.302;5.786;2022-08-25T16:16:10;38.20;30.80
57242;DHT22;43095;53.302;5.786;2022-08-25T16:18:57;38.20;31.40
57242;DHT22;43095;53.302;5.786;2022-08-25T16:21:42;38.30;31.70
57242;DHT22;43095;53.302;5.786;2022-08-25T16:24:32;38.40;31.40
57242;DHT22;43095;53.302;5.786;2022-08-25T16:27:23;38.10;31.50
57242;DHT22;43095;53.302;5.786;2022-08-25T16:30:11;37.80;32.20
57242;DHT22;43095;53.302;5.786;2022-08-25T16:33:02;37.70;32.50
57242;DHT22;43095;53.302;5.786;2022-08-25T16:35:50;37.70;32.90
57242;DHT22;43095;53.302;5.786;2022-08-25T16:38:37;37.80;33.40
57242;DHT22;43095;53.302;5.786;2022-08-25T16:41:25;37.40;32.90
57242;DHT22;43095;53.302;5.786;2022-08-25T16:44:20;37.40;33.60
57242;DHT22;43095;53.302;5.786;2022-08-25T16:47:07;37.40;33.90
57242;DHT22;43095;53.302;5.786;2022-08-25T16:49:53;37.30;34.00
57242;DHT22;43095;53.302;5.786;2022-08-25T16:52:39;37.20;34.00
57242;DHT22;43095;53.302;5.786;2022-08-25T16:55:44;36.90;34.30
57242;DHT22;43095;53.302;5.786;2022-08-25T16:58:30;36.80;35.60
57242;DHT22;43095;53.302;5.786;2022-08-25T17:01:17;36.60;35.00
57242;DHT22;43095;53.302;5.786;2022-08-25T17:04:03;36.40;35.00
57242;DHT22;43095;53.302;5.786;2022-08-25T17:06:49;36.20;34.80
57242;DHT22;43095;53.302;5.786;2022-08-25T17:09:36;36.10;34.80
57242;DHT22;43095;53.302;5.786;2022-08-25T17:12:23;35.70;35.30
57242;DHT22;43095;53.302;5.786;2022-08-25T17:15:09;35.50;35.40
57242;DHT22;43095;53.302;5.786;2022-08-25T17:17:55;35.30;35.80
57242;DHT22;43095;53.302;5.786;2022-08-25T17:20:43;35.00;36.30
57242;DHT22;43095;53.302;5.786;2022-08-25T17:23:30;34.70;36.70
57242;DHT22;43095;53.302;5.786;2022-08-25T17:26:18;34.60;37.10
57242;DHT22;43095;53.302;5.786;2022-08-25T17:29:12;34.40;37.40
57242;DHT22;43095;53.302;5.786;2022-08-25T17:31:58;34.20;37.90
57242;DHT22;43095;53.302;5.786;2022-08-25T17:34:45;33.90;38.20
57242;DHT22;43095;53.302;5.786;2022-08-25T17:37:30;33.60;38.70
57242;DHT22;43095;53.302;5.786;2022-08-25T17:40:16;33.20;38.90
57242;DHT22;43095;53.302;5.786;2022-08-25T17:43:02;32.90;39.80
57242;DHT22;43095;53.302;5.786;2022-08-25T17:45:48;32.60;40.20
57242;DHT22;43095;53.302;5.786;2022-08-25T17:48:34;32.30;40.60
57242;DHT22;43095;53.302;5.786;2022-08-25T17:51:21;31.90;40.90
57242;DHT22;43095;53.302;5.786;2022-08-25T17:54:08;31.70;41.60
57242;DHT22;43095;53.302;5.786;2022-08-25T17:56:53;31.30;42.00
57242;DHT22;43095;53.302;5.786;2022-08-25T17:59:39;31.10;42.40
57242;DHT22;43095;53.302;5.786;2022-08-25T18:02:25;30.90;42.60
57242;DHT22;43095;53.302;5.786;2022-08-25T18:05:14;30.60;43.30
57242;DHT22;43095;53.302;5.786;2022-08-25T18:08:01;30.40;44.30
57242;DHT22;43095;53.302;5.786;2022-08-25T18:10:55;30.20;44.70
57242;DHT22;43095;53.302;5.786;2022-08-25T18:13:41;29.90;45.50
57242;DHT22;43095;53.302;5.786;2022-08-25T18:16:27;29.70;46.40
57242;DHT22;43095;53.302;5.786;2022-08-25T18:19:13;29.40;47.10
57242;DHT22;43095;53.302;5.786;2022-08-25T18:22:00;29.30;48.20
57242;DHT22;43095;53.302;5.786;2022-08-25T18:24:48;29.10;47.70
57242;DHT22;43095;53.302;5.786;2022-08-25T18:27:35;28.90;48.20
57242;DHT22;43095;53.302;5.786;2022-08-25T18:30:22;28.70;48.20
57242;DHT22;43095;53.302;5.786;2022-08-25T18:33:11;28.60;48.10
57242;DHT22;43095;53.302;5.786;2022-08-25T18:35:57;28.40;48.20
57242;DHT22;43095;53.302;5.786;2022-08-25T18:38:43;28.30;48.40
57242;DHT22;43095;53.302;5.786;2022-08-25T18:41:46;28.20;48.40
57242;DHT22;43095;53.302;5.786;2022-08-25T18:44:32;28.10;49.00
57242;DHT22;43095;53.302;5.786;2022-08-25T18:47:18;27.90;49.70
57242;DHT22;43095;53.302;5.786;2022-08-25T18:50:06;27.50;51.10
57242;DHT22;43095;53.302;5.786;2022-08-25T18:52:52;27.20;54.80
57242;DHT22;43095;53.302;5.786;2022-08-25T18:55:40;27.10;60.20
57242;DHT22;43095;53.302;5.786;2022-08-25T18:58:28;26.80;65.20
57242;DHT22;43095;53.302;5.786;2022-08-25T19:01:15;26.60;72.80
57242;DHT22;43095;53.302;5.786;2022-08-25T19:04:03;26.40;85.90
57242;DHT22;43095;53.302;5.786;2022-08-25T19:06:49;26.20;94.20
57242;DHT22;43095;53.302;5.786;2022-08-25T19:09:36;26.00;97.90
57242;DHT22;43095;53.302;5.786;2022-08-25T19:12:22;25.80;99.90
57242;DHT22;43095;53.302;5.786;2022-08-25T19:15:08;25.70;99.90
57242;DHT22;43095;53.302;5.786;2022-08-25T19:17:55;25.50;99.90
57242;DHT22;43095;53.302;5.786;2022-08-25T19:20:43;25.40;99.90